Date,TemperatureHighF,TemperatureAvgF,TemperatureLowF,DewpointHighF,DewpointAvgF,DewpointLowF,HumidityHigh,HumidityAvg,HumidityLow,PressureMaxIn,PressureMinIn,WindSpeedMaxMPH,WindSpeedAvgMPH,GustSpeedMaxMPH,PrecipitationSumIn
2013-1-1,51,45,41,44,37,3,99,77,18,30.11,29.94,11,4,18,0.07
2013-1-2,44,36,30,41,34,30,99,91,68,30.26,29.98,11,4,19,0.02
2013-1-3,41,31,28,37,28,19,99,87,57,30.37,30.16,10,2,20,0.00
2013-1-4,43,29,22,20,17,11,79,62,31,30.45,30.24,16,5,28,0.09
2013-1-5,45,33,25,28,18,13,77,56,28,30.49,30.28,12,5,20,0.14
2013-1-6,45,36,32,35,30,25,99,80,58,30.32,30.07,20,6,34,0.26
2013-1-7,46,35,26,28,25,22,86,69,46,30.50,30.26,13,4,19,0.04
2013-1-8,47,38,29,40,30,24,99,75,52,30.51,30.38,8,3,12,0.00
2013-1-9,60,51,40,52,48,40,99,88,64,30.50,30.36,11,3,20,0.00
2013-1-10,58,50,45,54,46,32,99,88,56,30.55,30.45,6,3,10,0.00
2013-1-11,58,46,38,55,45,33,99,97,66,30.46,30.15,10,3,15,0.17
2013-1-12,68,60,56,61,58,55,99,92,70,30.16,30.07,9,3,12,0.00
2013-1-13,62,56,54,59,55,54,99,98,86,30.16,30.08,13,5,19,0.01
2013-1-14,57,55,47,57,55,46,99,99,99,30.23,30.08,11,3,16,1.75
2013-1-15,49,41,35,48,41,35,99,99,99,30.26,30.14,8,2,10,1.43
2013-1-16,59,50,37,56,48,37,99,94,63,30.14,29.91,8,2,16,0.27
2013-1-17,50,38,26,49,38,26,99,99,99,30.33,29.99,10,2,16,0.78
2013-1-18,40,29,21,27,22,16,99,78,42,30.62,30.33,4,1,6,0.17
2013-1-19,54,38,28,28,18,-2,76,48,11,30.58,30.18,7,3,9,0.04
2013-1-20,48,40,36,27,21,4,62,47,21,30.19,30.06,17,7,27,0.05
2013-1-21,44,36,24,25,13,0,68,41,29,30.18,29.98,21,7,32,0.00
2013-1-22,25,19,13,1,-12,-24,42,25,11,30.36,30.09,23,6,30,0.04
2013-1-23,35,25,16,22,8,-12,59,47,26,30.41,30.03,15,5,26,0.06
2013-1-24,36,25,13,25,4,-9,67,41,22,30.62,29.91,33,8,54,24.44
2013-1-25,35,18,11,34,12,-3,99,75,48,30.64,30.07,18,6,27,0.04
2013-1-26,38,31,26,28,19,15,84,62,40,30.45,30.11,8,3,14,0.01
2013-1-27,31,26,20,24,19,14,91,77,57,30.66,30.45,10,3,11,0.00
2013-1-28,54,42,28,41,34,24,96,74,54,30.54,30.23,10,3,12,0.01
2013-1-29,67,58,51,55,44,34,99,62,38,30.24,30.05,9,4,14,0.00
2013-1-30,58,54,40,57,54,39,99,99,97,30.05,29.47,21,8,27,3.70
2013-1-31,40,28,24,39,19,12,98,67,51,30.07,29.53,21,7,31,0.07
2013-2-1,33,20,13,26,3,-7,92,49,27,30.50,29.93,23,7,46,1.97
2013-2-2,30,22,13,26,5,-27,92,50,10,30.51,30.09,9,3,11,0.00
2013-2-3,34,28,24,25,19,11,88,68,50,30.10,29.88,18,8,34,0.04
2013-2-4,42,32,21,16,11,7,65,43,26,30.21,29.99,9,3,15,0.00
2013-2-5,43,39,35,32,23,10,73,53,28,30.04,29.95,11,4,17,0.00
2013-2-6,53,42,33,27,12,-7,66,35,10,30.32,30.02,12,4,20,0.00
2013-2-7,41,36,33,36,25,6,99,69,23,30.39,30.12,8,2,10,0.34
2013-2-8,47,37,28,46,30,17,99,81,41,30.19,29.89,18,6,30,0.54
2013-2-9,53,34,27,17,4,-12,62,32,10,30.41,30.17,18,6,32,0.41
2013-2-10,45,37,32,35,12,4,94,39,20,30.51,30.25,11,5,15,0.13
2013-2-11,57,47,37,54,37,12,99,73,28,30.25,29.99,18,6,30,0.05
2013-2-12,56,41,34,30,13,-3,88,35,10,30.17,30.00,19,5,27,0.00
2013-2-13,40,35,31,40,33,25,99,93,77,30.08,29.69,11,3,21,0.26
2013-2-14,50,36,26,26,19,7,82,53,17,30.14,29.93,8,2,11,0.00
2013-2-15,52,39,29,31,25,14,81,60,25,30.17,29.98,11,4,21,0.00
2013-2-16,30,25,17,21,13,-1,71,59,42,30.11,29.92,18,6,30,0.00
2013-2-17,30,20,11,9,-2,-9,78,40,18,30.33,30.09,19,7,31,0.00
2013-2-18,46,34,23,17,6,-11,48,32,19,30.42,30.25,11,4,15,0.00
2013-2-19,43,35,28,41,21,0,98,61,25,30.26,29.89,14,6,26,0.00
2013-2-20,34,27,24,6,-3,-21,42,27,10,30.23,30.09,16,7,27,0.00
2013-2-21,44,33,24,21,-4,-21,58,21,10,30.34,30.18,10,4,15,0.00
2013-2-22,34,30,28,32,29,22,99,95,61,30.40,30.19,6,0,11,0.01
2013-2-23,51,44,29,46,40,29,99,87,57,30.23,29.87,7,2,9,0.15
2013-2-24,51,42,33,36,20,3,81,46,14,30.16,29.89,11,4,20,0.00
2013-2-25,43,31,26,21,17,12,69,56,37,30.30,30.09,9,3,12,0.00
2013-2-26,32,28,24,31,25,14,97,87,60,30.25,29.79,8,1,11,0.22
2013-3-1,30,29,28,22,22,21,74,73,72,30.02,30.00,6,2,9,0.00
2013-3-2,35,27,19,22,17,11,77,67,44,30.06,29.89,13,4,22,0.00
2013-3-3,30,21,17,11,8,5,69,56,40,30.11,29.97,15,8,25,0.00
2013-3-4,40,25,18,6,1,-15,59,41,10,30.22,30.10,15,7,24,0.00
2013-3-5,43,38,32,38,22,0,99,62,19,30.12,29.70,11,2,20,0.61
2013-3-6,32,26,22,27,17,12,82,70,55,30.22,29.71,23,10,36,0.01
2013-3-7,38,28,23,20,18,15,83,67,44,30.39,30.21,14,7,27,0.00
2013-3-8,44,32,23,17,14,9,68,51,26,30.42,30.27,13,6,21,0.00
2013-3-9,46,45,44,20,18,18,36,34,32,30.37,30.32,4,2,8,0.00
2013-3-10,58,48,41,26,22,18,48,36,22,30.35,30.17,11,5,18,0.00
2013-3-11,48,44,39,48,38,24,99,81,40,30.25,29.93,12,5,16,0.48
2013-3-12,52,44,36,48,35,21,99,73,33,30.10,29.81,15,5,27,0.61
2013-3-13,36,31,23,24,15,6,72,52,33,30.28,30.08,16,6,25,0.00
2013-3-14,44,28,18,10,4,-9,64,39,10,30.39,30.19,18,8,29,0.00
2013-3-15,58,45,30,34,20,6,65,39,16,30.29,29.91,12,5,20,0.00
2013-3-16,69,58,52,47,38,33,78,49,29,29.94,29.68,15,6,28,0.01
2013-3-17,59,49,33,46,42,32,99,77,58,30.24,29.92,9,3,14,0.00
2013-3-18,41,32,29,41,32,28,99,99,99,30.26,29.93,7,1,11,0.21
2013-3-19,52,43,34,45,18,-14,99,48,10,30.18,29.86,15,6,26,0.01
2013-3-20,43,34,27,25,-4,-18,86,22,10,30.20,29.87,13,5,21,0.00
2013-3-21,29,22,16,25,3,-3,87,44,28,30.12,29.91,17,6,25,0.00
2013-3-22,38,24,16,12,0,-16,54,37,10,30.17,30.03,10,3,13,0.00
2013-3-23,53,40,33,35,27,12,76,62,40,30.13,29.90,6,2,11,0.00
2013-3-24,40,34,29,34,30,25,99,88,53,30.01,29.63,14,2,19,0.47
2013-3-25,31,27,24,30,22,14,99,81,59,29.93,29.63,0,0,0,0.01
2013-3-26,33,28,24,18,16,13,68,61,45,30.25,29.92,16,7,23,0.00
2013-3-27,37,28,24,18,13,10,74,53,35,30.37,30.24,13,6,30,0.00
2013-3-28,44,33,25,15,11,8,55,42,23,30.41,30.25,11,5,21,0.00
2013-3-29,50,38,30,23,10,-7,56,35,10,30.44,30.22,10,3,15,0.00
2013-3-30,59,45,34,32,21,9,69,43,14,30.34,30.07,8,3,11,0.00
2013-3-31,56,48,42,48,41,32,99,81,55,30.13,29.85,11,4,17,0.22
2013-4-1,54,47,40,45,32,20,96,58,36,30.08,29.91,18,5,31,0.00
2013-4-2,51,38,29,26,11,-9,63,37,10,30.26,30.08,8,3,15,0.00
2013-4-3,55,37,28,6,0,-10,39,22,10,30.39,30.18,8,3,17,0.00
2013-4-4,38,32,29,32,16,-8,94,59,15,30.43,30.09,8,1,11,0.00
2013-4-5,54,40,32,36,30,22,99,74,30,30.17,29.96,12,3,20,0.08
2013-4-6,60,50,40,30,22,16,62,35,18,30.28,30.14,8,3,12,0.00
2013-4-7,64,52,42,36,32,26,65,47,28,30.29,30.08,9,4,15,0.00
2013-4-8,71,60,51,43,38,35,57,46,29,30.19,30.01,8,3,11,0.00
2013-4-9,78,67,54,48,42,32,66,43,20,30.23,30.04,8,3,13,0.00
2013-4-10,81,68,59,49,46,39,66,48,23,30.14,29.93,9,2,12,0.00
2013-4-11,71,64,57,60,50,43,99,60,37,30.02,29.77,13,4,21,0.15
2013-4-12,66,58,48,61,46,25,99,71,24,29.93,29.69,17,6,27,0.79
2013-4-13,65,55,44,31,22,5,57,30,10,30.10,29.90,15,5,25,0.00
2013-4-14,68,58,49,43,26,14,69,31,15,30.14,30.02,13,5,17,0.00
2013-4-15,52,50,47,52,49,42,99,97,68,30.30,30.08,10,3,14,0.27
2013-4-16,71,59,51,61,54,51,99,84,59,30.35,30.18,8,3,10,0.02
2013-4-17,69,60,56,56,54,51,93,79,59,30.33,30.14,8,3,17,0.08
2013-4-18,68,61,56,60,54,49,99,78,54,30.21,30.01,13,6,18,0.07
2013-4-19,60,56,40,60,54,31,99,95,68,30.02,29.76,17,8,26,1.10
2013-4-20,56,43,32,31,20,13,70,42,19,30.39,29.99,15,5,25,0.00
2013-4-21,54,44,35,29,21,14,59,39,24,30.54,30.38,8,3,12,0.00
2013-4-22,56,45,33,30,24,12,84,47,23,30.56,30.27,7,3,10,0.00
2013-4-23,66,51,36,42,33,20,75,51,25,30.39,30.08,8,3,12,0.00
2013-4-24,67,56,49,52,45,38,88,66,46,30.20,29.97,9,3,15,0.01
2013-4-25,61,45,33,44,26,-2,82,53,10,30.39,30.15,10,3,17,0.00
2013-4-26,63,52,42,26,21,16,43,31,16,30.49,30.34,9,4,13,0.00
2013-4-27,54,51,46,48,38,22,99,65,29,30.43,30.33,8,2,11,0.09
2013-4-28,50,46,44,50,46,44,99,99,99,30.34,30.11,11,4,16,0.61
2013-4-29,65,55,48,54,51,40,99,88,46,30.15,29.99,8,2,14,0.05
2013-4-30,69,57,52,57,52,46,99,84,52,30.28,30.04,9,2,12,0.00
2013-5-1,60,53,49,51,49,46,99,89,64,30.40,30.27,12,3,19,0.04
2013-5-2,53,49,46,52,49,45,99,98,92,30.42,30.33,8,3,13,0.11
2013-5-3,56,50,44,49,44,36,99,82,57,30.36,30.20,11,4,15,0.04
2013-5-4,52,43,38,45,39,34,99,86,58,30.26,30.08,15,5,23,0.05
2013-5-5,48,43,39,47,41,34,99,95,80,30.18,29.97,17,6,30,1.43
2013-5-6,54,50,47,53,44,30,97,82,48,29.99,29.88,23,5,34,1.82
2013-5-7,64,49,46,46,36,0,91,64,10,30.04,29.86,6,2,11,0.32
2013-5-8,64,52,45,52,41,34,96,68,39,30.10,29.94,11,2,17,0.12
2013-5-9,74,61,49,50,45,40,91,59,32,30.15,30.01,10,3,16,0.01
2013-5-10,76,65,58,55,49,44,85,58,34,30.16,29.97,9,3,15,0.01
2013-5-11,63,60,57,53,50,48,77,70,61,30.01,29.94,6,2,9,0.00
2013-5-17,60,59,59,56,56,56,91,90,86,30.19,30.18,2,0,2,0.00
2013-5-18,63,60,58,60,56,51,99,86,72,30.22,30.13,9,2,12,0.79
2013-5-19,66,61,59,65,59,55,99,94,85,30.18,30.08,5,2,10,1.59
2013-6-8,77,70,64,64,62,61,99,78,62,30.17,29.97,2,1,4,0.20
2013-6-9,81,67,61,70,62,59,99,86,53,30.23,30.08,4,1,8,0.01
2013-6-10,71,65,62,68,61,50,99,89,48,30.15,29.91,8,2,16,0.00
2013-6-11,75,66,58,62,57,53,98,75,48,30.10,29.98,7,2,14,0.00
2013-6-12,85,74,62,66,61,56,82,65,42,30.09,29.91,8,3,15,0.00
2013-6-13,80,70,60,62,59,50,94,67,47,29.95,29.71,11,4,19,0.00
2013-6-14,72,63,56,50,48,42,78,59,35,30.16,29.88,8,3,15,0.00
2013-6-15,58,56,54,50,49,49,87,77,72,30.23,30.14,3,2,4,0.00
2013-6-25,71,69,67,64,63,62,90,81,75,30.12,30.08,2,1,3,0.00
2013-6-26,81,70,64,64,62,60,93,76,50,30.12,29.96,5,2,10,0.00
2013-7-12,63,62,62,62,62,62,99,99,99,30.10,30.04,4,2,8,0.02
2013-7-13,71,64,60,67,63,60,99,97,83,30.18,30.09,4,2,8,0.09
2013-7-14,74,67,64,73,66,64,99,98,82,30.36,30.15,8,3,13,1.30
2013-7-15,67,66,65,67,66,65,99,99,99,30.38,30.34,3,2,5,0.00
2013-7-20,81,73,68,70,68,64,99,86,60,30.05,29.94,13,1,100,0.09
2013-7-21,82,70,66,71,66,63,99,88,54,30.04,29.91,4,2,8,0.57
2013-7-22,114,69,64,100,67,64,99,94,69,30.03,29.70,6,2,10,0.35
2013-7-23,80,70,64,65,63,58,99,79,53,29.90,29.76,5,2,10,0.01
2013-7-24,82,71,65,66,62,57,99,76,47,29.92,29.76,4,2,9,0.00
2013-7-25,77,67,60,66,62,59,99,85,60,30.13,29.92,3,1,5,0.33
2013-7-26,76,65,50,67,62,50,99,92,68,30.22,30.02,3,1,5,0.09
2013-7-27,68,64,62,68,64,62,99,99,99,30.08,29.95,4,1,5,5.20
2013-7-28,75,66,40,68,61,39,99,86,50,30.18,29.93,4,1,9,1.71
2013-7-29,64,60,58,54,52,48,81,74,57,30.27,30.10,3,2,7,0.06
2013-7-30,73,64,39,63,56,32,95,75,54,30.43,30.18,49,1,49,0.00
2013-7-31,66,63,59,65,62,56,99,97,79,30.25,30.04,3,1,7,0.17
2013-8-3,66,66,65,63,63,62,92,91,89,30.04,30.03,1,0,2,0.00
2013-8-4,73,70,63,65,56,52,94,63,48,30.11,29.98,4,2,8,0.13
2013-8-5,63,61,58,58,56,55,99,86,77,30.15,30.11,2,0,3,0.00
2013-8-7,66,66,66,66,66,66,99,99,99,30.10,30.06,2,1,5,0.26
2013-8-8,74,68,65,74,68,65,99,99,99,30.10,30.02,3,1,4,0.05
2013-8-9,81,72,68,74,69,66,99,92,62,30.11,29.99,3,2,5,0.06
2013-8-10,82,71,65,71,67,63,99,89,56,30.18,30.03,8,2,15,0.24
2013-8-11,80,72,65,69,65,63,99,82,59,30.18,30.03,4,2,7,0.00
2013-8-12,81,73,64,70,66,62,99,79,54,30.10,29.97,3,1,9,0.04
2013-8-13,75,68,64,69,65,61,99,89,69,30.02,29.83,6,2,11,0.22
2013-8-14,73,63,56,62,52,43,96,71,40,30.19,29.94,4,2,9,0.00
2013-8-15,64,56,50,55,51,46,99,83,65,30.24,30.11,4,1,6,0.00
2013-8-16,69,58,50,58,54,49,99,86,54,30.26,30.10,2,1,4,0.00
2013-8-17,64,58,52,60,56,50,99,92,68,30.29,30.19,3,1,7,0.22
2013-8-18,69,62,59,68,62,59,99,99,93,30.27,30.16,2,0,5,0.94
2013-8-19,121,64,60,100,64,60,99,99,97,30.25,29.83,103,1,103,0.32
2013-8-20,75,68,60,71,65,60,99,92,74,30.25,30.13,49,2,49,0.01
2013-8-21,65,65,65,65,65,65,99,99,99,30.26,30.25,2,1,2,0.00
2013-8-22,79,70,-13,64,60,-25,94,70,45,30.78,30.02,4,2,6,0.09
2013-8-23,75,68,64,64,62,60,99,81,61,30.16,29.98,2,1,6,0.04
2013-8-24,74,64,57,64,54,42,99,72,38,30.39,30.16,4,1,8,0.00
2013-8-25,73,62,55,58,53,46,96,72,46,30.48,30.30,2,1,4,0.00
2013-8-26,78,62,55,56,55,53,99,82,42,30.42,30.14,3,1,4,0.00
2013-8-29,86,74,68,70,64,57,99,73,40,30.07,29.87,8,3,16,0.01
2013-8-30,75,69,64,70,66,63,99,93,75,30.12,29.97,3,1,6,0.31
2013-8-31,82,70,66,70,67,62,99,92,63,30.01,29.88,4,1,6,0.19
2013-9-1,80,69,63,69,66,62,99,90,64,29.97,29.85,4,1,10,0.35
2013-9-2,79,70,54,66,63,38,99,81,50,30.06,29.82,5,2,8,0.00
2013-9-3,78,69,61,66,60,52,99,75,42,30.07,29.85,6,2,11,0.00
2013-9-4,78,66,59,61,56,51,85,70,54,30.19,30.04,4,2,7,0.00
2013-9-5,82,68,56,54,49,36,85,55,19,30.22,30.05,4,2,8,0.00
2013-9-6,74,64,58,61,57,54,97,80,54,30.27,30.12,4,2,7,0.00
2013-9-7,77,65,56,62,58,54,99,81,56,30.22,30.01,4,1,6,0.00
2013-9-8,78,69,62,62,60,55,91,73,47,30.07,29.94,4,1,6,0.00
2013-9-9,67,64,62,64,62,60,99,92,80,30.15,30.07,2,1,4,0.00
2013-9-16,58,57,57,54,54,54,90,89,87,30.28,30.26,3,2,6,0.00
2013-9-17,62,55,51,54,48,45,94,78,59,30.39,30.28,3,1,7,0.00
2013-9-18,62,54,49,56,51,46,99,90,67,30.38,30.24,4,1,5,0.00
2013-9-19,68,61,55,64,60,55,99,95,76,30.26,30.12,3,1,5,0.02
2013-9-20,75,66,61,66,62,57,99,87,56,30.15,29.94,4,1,8,0.00
2013-9-21,64,61,54,63,60,54,99,99,99,30.00,29.76,5,2,14,0.61
2013-9-22,68,57,50,54,50,45,99,79,45,30.03,29.81,5,2,9,0.01
2013-9-23,65,54,48,55,50,45,99,87,52,30.15,30.02,3,1,5,0.00
2013-9-24,71,59,49,60,55,49,99,87,58,30.19,29.96,2,1,4,0.00
2013-9-25,58,56,52,57,56,52,99,99,99,30.02,29.93,2,0,3,0.17
2013-9-26,69,57,52,61,52,42,99,85,45,30.14,29.96,3,1,6,0.00
2013-9-27,68,57,50,54,50,47,99,78,53,30.27,30.09,3,1,4,0.00
2013-9-28,63,56,51,55,50,47,99,83,62,30.32,30.19,3,1,5,0.00
2013-9-29,64,55,50,56,51,45,99,86,63,30.27,30.06,3,1,4,0.00
2013-9-30,64,58,52,59,54,51,99,88,70,30.16,30.05,2,0,4,0.00
2013-10-1,73,60,52,57,52,47,99,77,43,30.21,30.05,3,1,4,0.00
2013-10-2,74,63,56,56,52,46,99,70,38,30.22,30.06,3,1,6,0.00
2013-10-3,73,64,58,58,54,51,87,69,53,30.21,30.07,2,1,4,0.00
2013-10-4,78,66,57,61,56,52,99,74,47,30.22,30.06,3,1,6,0.00
2013-10-5,78,67,59,60,58,53,99,75,47,30.22,30.03,3,1,4,0.00
2013-10-6,71,66,62,60,58,56,94,75,60,30.10,29.92,4,1,8,0.00
2013-10-7,63,58,49,62,52,40,99,83,57,30.13,29.85,8,2,11,1.94
2013-10-8,62,50,42,42,39,34,89,67,42,30.34,30.13,5,2,9,0.00
2013-10-9,68,51,41,42,37,27,99,64,25,30.36,30.11,4,2,6,0.00
2013-10-10,64,54,45,52,41,28,81,62,39,30.25,30.05,5,3,11,0.00
2013-10-11,69,59,53,48,43,36,80,57,34,30.07,29.94,8,3,13,0.00
2013-10-12,64,58,54,58,53,44,99,83,62,30.16,30.03,3,1,8,0.00
2013-10-13,66,59,57,62,58,56,99,96,76,30.29,30.16,2,0,5,0.06
2013-10-14,63,57,54,61,56,53,99,98,84,30.32,30.20,3,0,5,0.09
2013-10-15,64,55,49,55,50,44,99,83,57,30.29,30.08,2,1,4,0.00
2013-10-16,64,56,49,55,49,46,96,78,60,30.18,29.97,2,1,4,0.00
2013-10-18,54,53,53,53,52,52,98,97,95,30.04,30.02,2,0,3,0.00
2013-10-19,58,53,48,56,47,30,99,83,37,30.04,29.85,5,1,14,0.00
2013-10-20,58,46,36,34,29,19,81,54,30,30.19,30.01,8,2,10,0.01
2013-10-21,58,50,43,47,38,30,87,65,53,30.21,30.03,4,1,6,0.00
2013-10-22,62,54,50,47,37,29,87,55,31,30.06,29.83,8,2,14,0.01
2013-10-23,50,42,32,40,28,17,86,58,31,30.14,29.79,11,4,19,0.01
2013-10-24,43,36,30,33,22,17,97,56,40,30.27,30.12,11,3,16,0.00
2013-10-25,38,31,26,33,20,14,99,66,39,30.49,30.27,11,3,15,0.01
2013-10-26,50,38,24,28,17,9,77,45,22,30.49,30.09,6,1,10,0.00
2013-10-27,60,49,41,38,27,14,68,44,17,30.19,30.03,13,3,20,0.00
2013-10-28,56,52,50,49,44,38,91,74,64,30.33,30.16,4,1,9,0.00
2013-10-29,64,55,48,50,45,41,99,73,43,30.39,30.24,4,2,8,0.00
2013-10-30,68,59,52,51,46,43,85,64,41,30.33,30.14,6,1,11,0.02
2013-10-31,59,56,55,57,51,48,99,84,70,30.22,29.88,8,2,16,0.01
2013-11-1,71,59,53,58,50,34,99,76,32,29.89,29.63,12,4,20,0.05
2013-11-2,56,49,42,38,27,16,62,43,23,30.05,29.77,11,6,20,0.00
2013-11-3,52,42,36,27,21,15,60,45,23,30.47,30.04,11,4,18,0.00
2013-11-4,48,39,34,22,15,3,60,38,16,30.64,30.47,5,2,8,0.00
2013-11-5,52,41,29,44,26,-5,99,60,10,30.67,30.47,6,2,9,0.02
2013-11-6,58,50,44,51,46,41,99,86,57,30.51,30.17,5,2,8,0.02
2013-11-7,58,47,33,50,36,19,95,66,43,30.25,30.00,16,4,26,0.01
2013-11-8,45,36,31,19,8,-10,55,34,10,30.41,30.25,11,4,22,0.00
2013-11-9,48,44,36,12,6,-6,31,21,10,30.42,30.26,6,3,9,0.00
2013-11-10,58,47,38,25,9,-7,45,24,10,30.35,30.12,17,6,23,0.05
2013-11-11,45,36,34,2,-4,-15,24,18,10,30.42,30.22,8,4,9,0.00
2013-11-12,48,33,19,26,9,-5,56,40,10,30.62,30.07,16,6,27,0.00
2013-11-13,34,24,18,5,-3,-17,54,34,10,30.65,30.54,12,5,20,0.00
2013-11-14,41,35,29,-7,-10,-19,18,13,10,30.56,30.38,3,1,6,0.00
2013-11-15,54,46,43,46,36,-3,99,78,10,30.33,30.25,6,2,11,0.12
2013-11-16,51,48,46,51,47,46,99,99,99,30.32,30.24,6,2,10,0.00
2013-11-17,56,51,49,55,51,49,99,99,99,30.26,29.91,10,3,14,0.22
2013-11-18,59,52,38,56,28,0,99,49,10,30.10,29.85,15,7,34,0.02
2013-11-19,48,36,32,13,5,-9,41,28,10,30.38,30.10,17,4,25,0.00
2013-11-20,44,34,26,20,16,8,70,48,23,30.58,30.37,11,3,15,0.00
2013-11-21,52,41,32,47,37,19,99,84,57,30.61,30.41,5,2,9,0.02
2013-11-22,63,53,45,59,52,45,99,98,74,30.46,30.16,7,2,11,0.01
2013-11-23,52,41,25,51,26,-17,99,64,10,30.35,30.15,17,6,27,0.00
2013-11-24,24,18,15,6,-8,-28,52,33,10,30.66,30.35,13,5,23,0.00
2013-11-25,28,23,16,15,-14,-29,65,19,10,30.66,30.44,7,3,9,0.00
2013-11-26,42,37,25,41,36,15,99,98,66,30.44,29.69,8,3,15,2.39
2013-11-27,41,26,16,41,17,0,99,72,43,30.30,29.67,21,10,35,0.75
2013-11-28,38,23,14,6,-5,-25,64,32,10,30.54,30.31,11,4,15,0.00
2013-11-29,43,33,28,3,-13,-21,22,13,10,30.60,30.53,7,3,9,0.00
2013-12-22,55,53,51,54,53,51,99,99,99,30.10,30.03,12,4,16,0.89
2013-12-23,56,44,28,55,44,23,99,96,80,30.33,30.00,12,6,21,0.35
2013-12-24,30,24,15,24,10,-6,92,58,31,30.59,30.32,14,5,21,0.00
2013-12-25,23,17,13,2,-8,-28,60,35,10,30.62,30.47,5,2,8,0.00
2013-12-26,42,30,22,11,0,-19,44,28,10,30.48,30.29,11,4,16,0.00
2013-12-27,32,28,26,9,3,-20,47,36,10,30.54,30.45,4,2,6,0.00
2013-12-28,50,44,37,42,33,-5,99,73,10,30.28,30.21,8,3,11,0.14
2013-12-29,51,40,33,45,35,24,99,84,56,30.21,29.74,13,5,25,0.32
2013-12-30,40,36,32,32,27,4,80,70,28,30.22,30.00,14,5,21,0.00
2013-12-31,37,30,27,9,0,-18,42,29,10,30.49,30.19,15,6,26,0.00
2014-1-1,40,35,28,17,3,-17,54,28,10,30.47,30.21,8,3,12,0.00
2014-1-2,44,35,16,41,18,-11,99,58,11,30.21,29.68,16,4,29,0.07